sensor_id;sensor_type;location;lat;lon;timestamp;P1;durP1;ratioP1;P2;durP2;ratioP2
10963;SDS011;5534;48.784;9.190;2023-05-23T00:00:43;21.75;;;14.90;;
10963;SDS011;5534;48.784;9.190;2023-05-23T00:03:09;18.98;;;13.40;;
10963;SDS011;5534;48.784;9.190;2023-05-23T00:05:35;22.77;;;14.68;;
10963;SDS011;5534;48.784;9.190;2023-05-23T00:08:01;21.60;;;14.20;;
10963;SDS011;5534;48.784;9.190;2023-05-23T00:10:26;23.83;;;15.20;;
10963;SDS011;5534;48.784;9.190;2023-05-23T00:12:52;24.08;;;16.77;;
10963;SDS011;5534;48.784;9.190;2023-05-23T00:15:19;26.45;;;16.23;;
10963;SDS011;5534;48.784;9.190;2023-05-23T00:17:45;26.65;;;16.90;;
10963;SDS011;5534;48.784;9.190;2023-05-23T00:20:11;24.88;;;16.92;;
10963;SDS011;5534;48.784;9.190;2023-05-23T00:22:37;28.60;;;17.88;;
10963;SDS011;5534;48.784;9.190;2023-05-23T00:25:07;27.50;;;18.67;;
10963;SDS011;5534;48.784;9.190;2023-05-23T00:27:34;30.65;;;18.67;;
10963;SDS011;5534;48.784;9.190;2023-05-23T00:30:00;29.98;;;18.90;;
10963;SDS011;5534;48.784;9.190;2023-05-23T00:32:26;34.60;;;20.63;;
10963;SDS011;5534;48.784;9.190;2023-05-23T00:34:53;29.05;;;18.65;;
10963;SDS011;5534;48.784;9.190;2023-05-23T00:37:20;28.40;;;18.42;;
10963;SDS011;5534;48.784;9.190;2023-05-23T00:39:49;28.77;;;18.58;;
10963;SDS011;5534;48.784;9.190;2023-05-23T00:42:14;33.05;;;20.30;;
10963;SDS011;5534;48.784;9.190;2023-05-23T00:44:40;33.40;;;20.70;;
10963;SDS011;5534;48.784;9.190;2023-05-23T00:47:07;31.58;;;19.73;;
10963;SDS011;5534;48.784;9.190;2023-05-23T00:49:33;35.35;;;20.92;;
10963;SDS011;5534;48.784;9.190;2023-05-23T00:52:00;30.95;;;19.30;;
10963;SDS011;5534;48.784;9.190;2023-05-23T00:54:27;32.40;;;19.13;;
10963;SDS011;5534;48.784;9.190;2023-05-23T00:56:55;35.47;;;20.33;;
10963;SDS011;5534;48.784;9.190;2023-05-23T00:59:23;35.55;;;21.10;;
10963;SDS011;5534;48.784;9.190;2023-05-23T01:01:50;34.13;;;21.38;;
10963;SDS011;5534;48.784;9.190;2023-05-23T01:04:17;38.72;;;22.33;;
10963;SDS011;5534;48.784;9.190;2023-05-23T01:06:44;37.53;;;22.30;;
10963;SDS011;5534;48.784;9.190;2023-05-23T01:09:14;37.13;;;20.95;;
10963;SDS011;5534;48.784;9.190;2023-05-23T01:11:46;32.03;;;20.73;;
10963;SDS011;5534;48.784;9.190;2023-05-23T01:20:38;37.78;;;23.15;;
10963;SDS011;5534;48.784;9.190;2023-05-23T01:23:16;35.78;;;21.42;;
10963;SDS011;5534;48.784;9.190;2023-05-23T01:28:27;36.60;;;22.42;;
10963;SDS011;5534;48.784;9.190;2023-05-23T01:30:57;34.28;;;21.65;;
10963;SDS011;5534;48.784;9.190;2023-05-23T01:33:24;35.85;;;23.00;;
10963;SDS011;5534;48.784;9.190;2023-05-23T01:35:52;39.95;;;23.30;;
10963;SDS011;5534;48.784;9.190;2023-05-23T01:38:20;38.15;;;24.08;;
10963;SDS011;5534;48.784;9.190;2023-05-23T01:40:46;40.35;;;25.42;;
10963;SDS011;5534;48.784;9.190;2023-05-23T01:43:12;38.88;;;23.27;;
10963;SDS011;5534;48.784;9.190;2023-05-23T01:45:37;43.03;;;24.45;;
10963;SDS011;5534;48.784;9.190;2023-05-23T01:48:04;38.72;;;23.52;;
10963;SDS011;5534;48.784;9.190;2023-05-23T01:50:30;38.70;;;23.75;;
10963;SDS011;5534;48.784;9.190;2023-05-23T01:52:56;43.10;;;26.45;;
10963;SDS011;5534;48.784;9.190;2023-05-23T01:55:23;40.67;;;24.20;;
10963;SDS011;5534;48.784;9.190;2023-05-23T01:57:50;38.58;;;24.02;;
10963;SDS011;5534;48.784;9.190;2023-05-23T02:00:19;40.60;;;25.05;;
10963;SDS011;5534;48.784;9.190;2023-05-23T02:02:45;38.13;;;24.60;;
10963;SDS011;5534;48.784;9.190;2023-05-23T02:05:11;37.70;;;24.92;;
10963;SDS011;5534;48.784;9.190;2023-05-23T02:07:37;40.28;;;24.98;;
10963;SDS011;5534;48.784;9.190;2023-05-23T02:10:03;42.58;;;25.80;;
10963;SDS011;5534;48.784;9.190;2023-05-23T02:12:33;45.20;;;26.30;;
10963;SDS011;5534;48.784;9.190;2023-05-23T02:14:58;43.25;;;25.83;;
10963;SDS011;5534;48.784;9.190;2023-05-23T02:17:24;39.22;;;25.13;;
10963;SDS011;5534;48.784;9.190;2023-05-23T02:19:50;45.05;;;26.52;;
10963;SDS011;5534;48.784;9.190;2023-05-23T02:22:16;44.13;;;26.77;;
10963;SDS011;5534;48.784;9.190;2023-05-23T02:24:41;42.10;;;26.58;;
10963;SDS011;5534;48.784;9.190;2023-05-23T02:27:08;37.92;;;24.13;;
10963;SDS011;5534;48.784;9.190;2023-05-23T02:29:34;39.28;;;25.52;;
10963;SDS011;5534;48.784;9.190;2023-05-23T02:32:00;48.72;;;28.77;;
10963;SDS011;5534;48.784;9.190;2023-05-23T02:34:26;44.85;;;26.02;;
10963;SDS011;5534;48.784;9.190;2023-05-23T02:36:51;49.03;;;28.40;;
10963;SDS011;5534;48.784;9.190;2023-05-23T02:39:17;45.72;;;27.98;;
10963;SDS011;5534;48.784;9.190;2023-05-23T02:41:43;41.08;;;27.23;;
10963;SDS011;5534;48.784;9.190;2023-05-23T02:44:09;44.20;;;29.15;;
10963;SDS011;5534;48.784;9.190;2023-05-23T02:46:34;43.33;;;30.02;;
10963;SDS011;5534;48.784;9.190;2023-05-23T02:49:00;45.22;;;29.02;;
10963;SDS011;5534;48.784;9.190;2023-05-23T02:51:26;41.65;;;27.65;;
10963;SDS011;5534;48.784;9.190;2023-05-23T02:53:52;46.00;;;28.85;;
10963;SDS011;5534;48.784;9.190;2023-05-23T02:56:17;43.53;;;27.27;;
10963;SDS011;5534;48.784;9.190;2023-05-23T02:58:44;40.30;;;27.02;;
10963;SDS011;5534;48.784;9.190;2023-05-23T03:01:10;44.28;;;28.85;;
10963;SDS011;5534;48.784;9.190;2023-05-23T03:03:36;42.80;;;27.60;;
10963;SDS011;5534;48.784;9.190;2023-05-23T03:06:01;44.90;;;29.92;;
10963;SDS011;5534;48.784;9.190;2023-05-23T03:08:29;51.08;;;29.33;;
10963;SDS011;5534;48.784;9.190;2023-05-23T03:10:54;45.00;;;28.35;;
10963;SDS011;5534;48.784;9.190;2023-05-23T03:13:20;43.25;;;27.83;;
10963;SDS011;5534;48.784;9.190;2023-05-23T03:15:47;44.53;;;30.38;;
10963;SDS011;5534;48.784;9.190;2023-05-23T03:18:13;49.38;;;29.75;;
10963;SDS011;5534;48.784;9.190;2023-05-23T03:20:39;45.35;;;29.40;;
10963;SDS011;5534;48.784;9.190;2023-05-23T03:23:04;45.25;;;29.95;;
10963;SDS011;5534;48.784;9.190;2023-05-23T03:25:30;41.80;;;28.05;;
10963;SDS011;5534;48.784;9.190;2023-05-23T03:27:56;43.08;;;28.65;;
10963;SDS011;5534;48.784;9.190;2023-05-23T03:30:22;40.88;;;27.40;;
10963;SDS011;5534;48.784;9.190;2023-05-23T03:32:47;42.38;;;28.45;;
10963;SDS011;5534;48.784;9.190;2023-05-23T03:35:14;39.90;;;26.17;;
10963;SDS011;5534;48.784;9.190;2023-05-23T03:37:40;38.17;;;26.05;;
10963;SDS011;5534;48.784;9.190;2023-05-23T03:40:05;36.75;;;25.98;;
10963;SDS011;5534;48.784;9.190;2023-05-23T03:42:32;38.58;;;26.23;;
10963;SDS011;5534;48.784;9.190;2023-05-23T03:44:58;36.45;;;24.67;;
10963;SDS011;5534;48.784;9.190;2023-05-23T03:47:23;41.55;;;26.13;;
10963;SDS011;5534;48.784;9.190;2023-05-23T03:49:49;36.25;;;24.70;;
10963;SDS011;5534;48.784;9.190;2023-05-23T03:52:16;39.97;;;25.80;;
10963;SDS011;5534;48.784;9.190;2023-05-23T03:54:42;35.95;;;24.00;;
10963;SDS011;5534;48.784;9.190;2023-05-23T03:57:08;37.90;;;23.70;;
10963;SDS011;5534;48.784;9.190;2023-05-23T03:59:33;35.65;;;23.15;;
10963;SDS011;5534;48.784;9.190;2023-05-23T04:01:59;31.63;;;22.77;;
10963;SDS011;5534;48.784;9.190;2023-05-23T04:04:28;35.83;;;23.95;;
10963;SDS011;5534;48.784;9.190;2023-05-23T04:06:54;34.97;;;23.10;;
10963;SDS011;5534;48.784;9.190;2023-05-23T04:09:20;36.22;;;26.35;;
10963;SDS011;5534;48.784;9.190;2023-05-23T04:11:46;34.97;;;24.70;;
10963;SDS011;5534;48.784;9.190;2023-05-23T04:14:12;37.72;;;24.30;;
10963;SDS011;5534;48.784;9.190;2023-05-23T04:16:38;35.90;;;24.65;;
10963;SDS011;5534;48.784;9.190;2023-05-23T04:19:06;34.40;;;24.20;;
10963;SDS011;5534;48.784;9.190;2023-05-23T04:21:35;34.75;;;24.38;;
10963;SDS011;5534;48.784;9.190;2023-05-23T04:24:01;36.88;;;25.65;;
10963;SDS011;5534;48.784;9.190;2023-05-23T04:26:27;33.97;;;24.17;;
10963;SDS011;5534;48.784;9.190;2023-05-23T04:28:53;35.47;;;23.98;;
10963;SDS011;5534;48.784;9.190;2023-05-23T04:31:21;32.97;;;23.77;;
10963;SDS011;5534;48.784;9.190;2023-05-23T04:33:47;32.40;;;23.73;;
10963;SDS011;5534;48.784;9.190;2023-05-23T04:36:13;34.55;;;24.35;;
10963;SDS011;5534;48.784;9.190;2023-05-23T04:38:39;34.63;;;23.27;;
10963;SDS011;5534;48.784;9.190;2023-05-23T04:41:05;34.10;;;23.23;;
10963;SDS011;5534;48.784;9.190;2023-05-23T04:43:34;33.35;;;23.23;;
10963;SDS011;5534;48.784;9.190;2023-05-23T04:46:07;32.35;;;23.35;;
10963;SDS011;5534;48.784;9.190;2023-05-23T04:48:34;33.63;;;23.00;;
10963;SDS011;5534;48.784;9.190;2023-05-23T04:51:01;34.45;;;22.65;;
10963;SDS011;5534;48.784;9.190;2023-05-23T04:53:30;33.33;;;24.25;;
10963;SDS011;5534;48.784;9.190;2023-05-23T04:55:59;32.28;;;23.05;;
10963;SDS011;5534;48.784;9.190;2023-05-23T04:58:25;32.42;;;22.10;;
10963;SDS011;5534;48.784;9.190;2023-05-23T05:00:51;33.33;;;22.52;;
10963;SDS011;5534;48.784;9.190;2023-05-23T05:03:17;30.98;;;22.15;;
10963;SDS011;5534;48.784;9.190;2023-05-23T05:05:42;32.17;;;23.15;;
10963;SDS011;5534;48.784;9.190;2023-05-23T05:08:08;31.13;;;22.98;;
10963;SDS011;5534;48.784;9.190;2023-05-23T05:10:34;32.30;;;22.88;;
10963;SDS011;5534;48.784;9.190;2023-05-23T05:12:59;31.02;;;22.23;;
10963;SDS011;5534;48.784;9.190;2023-05-23T05:15:25;31.30;;;21.77;;
10963;SDS011;5534;48.784;9.190;2023-05-23T05:17:52;33.10;;;23.58;;
10963;SDS011;5534;48.784;9.190;2023-05-23T05:20:18;32.95;;;21.67;;
10963;SDS011;5534;48.784;9.190;2023-05-23T05:22:44;30.05;;;22.10;;
10963;SDS011;5534;48.784;9.190;2023-05-23T05:25:10;33.65;;;21.85;;
10963;SDS011;5534;48.784;9.190;2023-05-23T05:27:36;28.45;;;22.15;;
10963;SDS011;5534;48.784;9.190;2023-05-23T05:30:05;29.55;;;21.52;;
10963;SDS011;5534;48.784;9.190;2023-05-23T05:32:33;33.92;;;22.30;;
10963;SDS011;5534;48.784;9.190;2023-05-23T05:34:59;33.22;;;22.42;;
10963;SDS011;5534;48.784;9.190;2023-05-23T05:37:25;31.88;;;23.55;;
10963;SDS011;5534;48.784;9.190;2023-05-23T05:39:51;29.90;;;21.65;;
10963;SDS011;5534;48.784;9.190;2023-05-23T05:42:18;29.95;;;22.85;;
10963;SDS011;5534;48.784;9.190;2023-05-23T05:44:45;29.38;;;21.42;;
10963;SDS011;5534;48.784;9.190;2023-05-23T05:47:12;30.00;;;22.45;;
10963;SDS011;5534;48.784;9.190;2023-05-23T05:49:38;33.33;;;23.25;;
10963;SDS011;5534;48.784;9.190;2023-05-23T05:52:05;31.95;;;21.63;;
10963;SDS011;5534;48.784;9.190;2023-05-23T05:54:31;29.77;;;22.50;;
10963;SDS011;5534;48.784;9.190;2023-05-23T05:56:57;29.25;;;21.00;;
10963;SDS011;5534;48.784;9.190;2023-05-23T05:59:24;32.05;;;22.33;;
10963;SDS011;5534;48.784;9.190;2023-05-23T06:01:50;30.38;;;21.80;;
10963;SDS011;5534;48.784;9.190;2023-05-23T06:04:19;32.95;;;23.35;;
10963;SDS011;5534;48.784;9.190;2023-05-23T06:06:45;29.02;;;21.70;;
10963;SDS011;5534;48.784;9.190;2023-05-23T06:09:10;27.88;;;21.25;;
10963;SDS011;5534;48.784;9.190;2023-05-23T06:11:36;29.95;;;21.95;;
10963;SDS011;5534;48.784;9.190;2023-05-23T06:14:05;32.25;;;23.42;;
10963;SDS011;5534;48.784;9.190;2023-05-23T06:16:32;29.25;;;22.73;;
10963;SDS011;5534;48.784;9.190;2023-05-23T06:18:57;31.45;;;22.02;;
10963;SDS011;5534;48.784;9.190;2023-05-23T06:21:23;32.40;;;23.98;;
10963;SDS011;5534;48.784;9.190;2023-05-23T06:23:49;32.45;;;23.08;;
10963;SDS011;5534;48.784;9.190;2023-05-23T06:26:16;32.42;;;23.75;;
10963;SDS011;5534;48.784;9.190;2023-05-23T06:28:42;27.10;;;21.35;;
10963;SDS011;5534;48.784;9.190;2023-05-23T06:31:10;27.25;;;22.33;;
10963;SDS011;5534;48.784;9.190;2023-05-23T06:33:36;30.98;;;24.33;;
10963;SDS011;5534;48.784;9.190;2023-05-23T06:36:02;31.30;;;24.20;;
10963;SDS011;5534;48.784;9.190;2023-05-23T06:38:28;32.78;;;25.30;;
10963;SDS011;5534;48.784;9.190;2023-05-23T06:40:57;31.08;;;22.42;;
10963;SDS011;5534;48.784;9.190;2023-05-23T06:43:24;31.75;;;23.95;;
10963;SDS011;5534;48.784;9.190;2023-05-23T06:45:50;31.45;;;23.95;;
10963;SDS011;5534;48.784;9.190;2023-05-23T06:48:16;31.45;;;24.80;;
10963;SDS011;5534;48.784;9.190;2023-05-23T06:50:41;34.33;;;24.00;;
10963;SDS011;5534;48.784;9.190;2023-05-23T06:53:07;33.40;;;25.13;;
10963;SDS011;5534;48.784;9.190;2023-05-23T06:55:33;31.80;;;22.85;;
10963;SDS011;5534;48.784;9.190;2023-05-23T06:57:59;31.95;;;23.88;;
10963;SDS011;5534;48.784;9.190;2023-05-23T07:00:31;29.35;;;23.88;;
10963;SDS011;5534;48.784;9.190;2023-05-23T07:02:57;30.70;;;23.83;;
10963;SDS011;5534;48.784;9.190;2023-05-23T07:05:27;31.38;;;23.88;;
10963;SDS011;5534;48.784;9.190;2023-05-23T07:07:53;31.25;;;23.25;;
10963;SDS011;5534;48.784;9.190;2023-05-23T07:10:19;27.73;;;20.42;;
10963;SDS011;5534;48.784;9.190;2023-05-23T07:12:45;30.55;;;23.50;;
10963;SDS011;5534;48.784;9.190;2023-05-23T07:15:11;30.90;;;22.23;;
10963;SDS011;5534;48.784;9.190;2023-05-23T07:17:39;30.10;;;22.45;;
10963;SDS011;5534;48.784;9.190;2023-05-23T07:20:05;27.63;;;21.77;;
10963;SDS011;5534;48.784;9.190;2023-05-23T07:22:32;29.27;;;22.52;;
10963;SDS011;5534;48.784;9.190;2023-05-23T07:24:58;26.73;;;20.58;;
10963;SDS011;5534;48.784;9.190;2023-05-23T07:27:25;26.13;;;20.17;;
10963;SDS011;5534;48.784;9.190;2023-05-23T07:29:51;25.40;;;19.30;;
10963;SDS011;5534;48.784;9.190;2023-05-23T07:32:17;22.27;;;17.92;;
10963;SDS011;5534;48.784;9.190;2023-05-23T07:34:42;26.77;;;16.65;;
10963;SDS011;5534;48.784;9.190;2023-05-23T07:37:08;20.83;;;16.67;;
10963;SDS011;5534;48.784;9.190;2023-05-23T07:39:34;20.55;;;15.35;;
10963;SDS011;5534;48.784;9.190;2023-05-23T07:42:00;19.65;;;15.13;;
10963;SDS011;5534;48.784;9.190;2023-05-23T07:44:26;19.17;;;16.33;;
10963;SDS011;5534;48.784;9.190;2023-05-23T07:46:52;21.73;;;16.55;;
10963;SDS011;5534;48.784;9.190;2023-05-23T07:49:18;22.45;;;17.80;;
10963;SDS011;5534;48.784;9.190;2023-05-23T07:51:44;26.77;;;19.25;;
10963;SDS011;5534;48.784;9.190;2023-05-23T07:54:09;23.88;;;19.20;;
10963;SDS011;5534;48.784;9.190;2023-05-23T07:56:35;23.23;;;18.67;;
10963;SDS011;5534;48.784;9.190;2023-05-23T07:59:02;22.65;;;19.05;;
10963;SDS011;5534;48.784;9.190;2023-05-23T08:01:29;21.35;;;17.92;;
10963;SDS011;5534;48.784;9.190;2023-05-23T08:03:55;21.90;;;17.45;;
10963;SDS011;5534;48.784;9.190;2023-05-23T08:06:21;21.73;;;16.13;;
10963;SDS011;5534;48.784;9.190;2023-05-23T08:08:47;20.10;;;16.10;;
10963;SDS011;5534;48.784;9.190;2023-05-23T08:11:13;20.17;;;15.40;;
10963;SDS011;5534;48.784;9.190;2023-05-23T08:13:39;17.73;;;14.10;;
10963;SDS011;5534;48.784;9.190;2023-05-23T08:16:05;16.50;;;14.68;;
10963;SDS011;5534;48.784;9.190;2023-05-23T08:18:31;17.23;;;14.05;;
10963;SDS011;5534;48.784;9.190;2023-05-23T08:20:56;19.17;;;14.70;;
10963;SDS011;5534;48.784;9.190;2023-05-23T08:23:22;19.77;;;14.57;;
10963;SDS011;5534;48.784;9.190;2023-05-23T08:25:48;17.70;;;13.82;;
10963;SDS011;5534;48.784;9.190;2023-05-23T08:28:14;17.38;;;14.00;;
10963;SDS011;5534;48.784;9.190;2023-05-23T08:30:40;17.77;;;13.70;;
10963;SDS011;5534;48.784;9.190;2023-05-23T08:33:06;16.27;;;13.20;;
10963;SDS011;5534;48.784;9.190;2023-05-23T08:35:32;19.77;;;13.75;;
10963;SDS011;5534;48.784;9.190;2023-05-23T08:38:00;17.17;;;13.18;;
10963;SDS011;5534;48.784;9.190;2023-05-23T08:40:26;18.02;;;13.90;;
10963;SDS011;5534;48.784;9.190;2023-05-23T08:42:55;15.93;;;12.32;;
10963;SDS011;5534;48.784;9.190;2023-05-23T08:45:21;15.10;;;12.35;;
10963;SDS011;5534;48.784;9.190;2023-05-23T08:47:47;16.15;;;12.93;;
10963;SDS011;5534;48.784;9.190;2023-05-23T08:50:16;14.65;;;12.52;;
10963;SDS011;5534;48.784;9.190;2023-05-23T08:52:51;14.63;;;11.82;;
10963;SDS011;5534;48.784;9.190;2023-05-23T08:55:20;17.60;;;12.82;;
10963;SDS011;5534;48.784;9.190;2023-05-23T08:57:51;15.15;;;11.70;;
10963;SDS011;5534;48.784;9.190;2023-05-23T09:00:18;16.30;;;12.18;;
10963;SDS011;5534;48.784;9.190;2023-05-23T09:02:45;14.00;;;11.63;;
10963;SDS011;5534;48.784;9.190;2023-05-23T09:05:11;14.27;;;11.20;;
10963;SDS011;5534;48.784;9.190;2023-05-23T09:07:41;13.45;;;11.82;;
10963;SDS011;5534;48.784;9.190;2023-05-23T09:10:10;14.15;;;11.48;;
10963;SDS011;5534;48.784;9.190;2023-05-23T09:12:37;13.13;;;11.30;;
10963;SDS011;5534;48.784;9.190;2023-05-23T09:15:03;13.63;;;11.00;;
10963;SDS011;5534;48.784;9.190;2023-05-23T09:17:33;12.85;;;11.20;;
10963;SDS011;5534;48.784;9.190;2023-05-23T09:20:00;14.05;;;11.52;;
10963;SDS011;5534;48.784;9.190;2023-05-23T09:22:29;14.27;;;11.27;;
10963;SDS011;5534;48.784;9.190;2023-05-23T09:24:55;13.90;;;10.68;;
10963;SDS011;5534;48.784;9.190;2023-05-23T09:27:22;14.48;;;11.00;;
10963;SDS011;5534;48.784;9.190;2023-05-23T09:29:48;14.68;;;10.90;;
10963;SDS011;5534;48.784;9.190;2023-05-23T09:32:18;17.10;;;12.38;;
10963;SDS011;5534;48.784;9.190;2023-05-23T09:34:58;13.73;;;10.70;;
10963;SDS011;5534;48.784;9.190;2023-05-23T09:37:31;14.25;;;10.85;;
10963;SDS011;5534;48.784;9.190;2023-05-23T09:40:20;12.20;;;10.48;;
10963;SDS011;5534;48.784;9.190;2023-05-23T09:42:46;14.73;;;11.05;;
10963;SDS011;5534;48.784;9.190;2023-05-23T09:45:13;11.85;;;9.80;;
10963;SDS011;5534;48.784;9.190;2023-05-23T09:47:50;12.50;;;10.20;;
10963;SDS011;5534;48.784;9.190;2023-05-23T09:50:20;14.35;;;10.60;;
10963;SDS011;5534;48.784;9.190;2023-05-23T09:52:47;13.70;;;10.52;;
10963;SDS011;5534;48.784;9.190;2023-05-23T09:55:13;11.63;;;9.15;;
10963;SDS011;5534;48.784;9.190;2023-05-23T09:57:40;13.30;;;10.27;;
10963;SDS011;5534;48.784;9.190;2023-05-23T10:00:08;12.77;;;9.90;;
10963;SDS011;5534;48.784;9.190;2023-05-23T10:02:42;12.10;;;9.27;;
10963;SDS011;5534;48.784;9.190;2023-05-23T10:05:29;12.25;;;9.57;;
10963;SDS011;5534;48.784;9.190;2023-05-23T10:07:57;11.82;;;9.32;;
10963;SDS011;5534;48.784;9.190;2023-05-23T10:10:25;14.02;;;9.77;;
10963;SDS011;5534;48.784;9.190;2023-05-23T10:12:57;10.93;;;8.63;;
10963;SDS011;5534;48.784;9.190;2023-05-23T10:15:26;14.15;;;9.85;;
10963;SDS011;5534;48.784;9.190;2023-05-23T10:18:42;10.48;;;7.93;;
10963;SDS011;5534;48.784;9.190;2023-05-23T10:20:51;11.48;;;9.43;;
10963;SDS011;5534;48.784;9.190;2023-05-23T10:23:20;12.20;;;9.88;;
10963;SDS011;5534;48.784;9.190;2023-05-23T10:25:46;10.30;;;8.95;;
10963;SDS011;5534;48.784;9.190;2023-05-23T10:28:12;11.82;;;8.15;;
10963;SDS011;5534;48.784;9.190;2023-05-23T10:30:39;10.30;;;8.63;;
10963;SDS011;5534;48.784;9.190;2023-05-23T10:33:05;9.60;;;7.00;;
10963;SDS011;5534;48.784;9.190;2023-05-23T10:38:25;10.45;;;7.07;;
10963;SDS011;5534;48.784;9.190;2023-05-23T10:41:11;9.80;;;7.85;;
10963;SDS011;5534;48.784;9.190;2023-05-23T10:44:04;8.65;;;7.25;;
10963;SDS011;5534;48.784;9.190;2023-05-23T10:46:52;9.43;;;6.85;;
10963;SDS011;5534;48.784;9.190;2023-05-23T10:49:43;7.30;;;6.53;;
10963;SDS011;5534;48.784;9.190;2023-05-23T10:52:16;7.43;;;6.63;;
10963;SDS011;5534;48.784;9.190;2023-05-23T10:54:43;7.85;;;6.32;;
10963;SDS011;5534;48.784;9.190;2023-05-23T10:57:10;9.18;;;7.43;;
10963;SDS011;5534;48.784;9.190;2023-05-23T10:59:40;7.43;;;6.72;;
10963;SDS011;5534;48.784;9.190;2023-05-23T11:02:17;7.32;;;6.22;;
10963;SDS011;5534;48.784;9.190;2023-05-23T11:04:44;8.57;;;7.00;;
10963;SDS011;5534;48.784;9.190;2023-05-23T11:07:29;7.82;;;6.38;;
10963;SDS011;5534;48.784;9.190;2023-05-23T11:10:01;7.88;;;6.47;;
10963;SDS011;5534;48.784;9.190;2023-05-23T11:12:41;7.30;;;6.32;;
10963;SDS011;5534;48.784;9.190;2023-05-23T11:15:18;7.18;;;6.47;;
10963;SDS011;5534;48.784;9.190;2023-05-23T11:17:52;8.98;;;6.25;;
10963;SDS011;5534;48.784;9.190;2023-05-23T11:20:19;8.15;;;6.35;;
10963;SDS011;5534;48.784;9.190;2023-05-23T11:22:55;7.97;;;5.53;;
10963;SDS011;5534;48.784;9.190;2023-05-23T11:25:40;7.18;;;5.53;;
10963;SDS011;5534;48.784;9.190;2023-05-23T11:28:19;10.93;;;7.88;;
10963;SDS011;5534;48.784;9.190;2023-05-23T11:30:50;9.07;;;7.85;;
10963;SDS011;5534;48.784;9.190;2023-05-23T11:33:19;8.23;;;6.35;;
10963;SDS011;5534;48.784;9.190;2023-05-23T11:35:48;6.32;;;5.53;;
10963;SDS011;5534;48.784;9.190;2023-05-23T11:38:16;6.63;;;5.90;;
10963;SDS011;5534;48.784;9.190;2023-05-23T11:40:45;6.82;;;6.10;;
10963;SDS011;5534;48.784;9.190;2023-05-23T11:43:13;8.38;;;6.85;;
10963;SDS011;5534;48.784;9.190;2023-05-23T11:45:39;7.20;;;6.45;;
10963;SDS011;5534;48.784;9.190;2023-05-23T11:48:12;7.32;;;6.50;;
10963;SDS011;5534;48.784;9.190;2023-05-23T11:50:44;7.65;;;6.85;;
10963;SDS011;5534;48.784;9.190;2023-05-23T11:53:17;7.53;;;6.28;;
10963;SDS011;5534;48.784;9.190;2023-05-23T11:55:55;8.30;;;7.30;;
10963;SDS011;5534;48.784;9.190;2023-05-23T11:58:37;8.27;;;6.80;;
10963;SDS011;5534;48.784;9.190;2023-05-23T12:01:07;8.07;;;6.55;;
10963;SDS011;5534;48.784;9.190;2023-05-23T12:03:35;7.20;;;6.40;;
10963;SDS011;5534;48.784;9.190;2023-05-23T12:06:24;8.85;;;6.78;;
10963;SDS011;5534;48.784;9.190;2023-05-23T12:08:50;8.07;;;6.20;;
10963;SDS011;5534;48.784;9.190;2023-05-23T12:11:16;7.30;;;5.90;;
10963;SDS011;5534;48.784;9.190;2023-05-23T12:13:42;7.75;;;6.88;;
10963;SDS011;5534;48.784;9.190;2023-05-23T12:16:12;8.40;;;6.28;;
10963;SDS011;5534;48.784;9.190;2023-05-23T12:18:41;7.05;;;5.45;;
10963;SDS011;5534;48.784;9.190;2023-05-23T12:21:07;6.50;;;5.38;;
10963;SDS011;5534;48.784;9.190;2023-05-23T12:23:33;6.50;;;5.70;;
10963;SDS011;5534;48.784;9.190;2023-05-23T12:26:00;8.63;;;6.55;;
10963;SDS011;5534;48.784;9.190;2023-05-23T12:28:39;6.82;;;5.72;;
10963;SDS011;5534;48.784;9.190;2023-05-23T12:33:38;5.82;;;5.22;;
10963;SDS011;5534;48.784;9.190;2023-05-23T12:36:05;6.70;;;4.88;;
10963;SDS011;5534;48.784;9.190;2023-05-23T12:38:32;6.22;;;5.63;;
10963;SDS011;5534;48.784;9.190;2023-05-23T12:41:08;5.72;;;5.13;;
10963;SDS011;5534;48.784;9.190;2023-05-23T12:43:37;6.35;;;5.05;;
10963;SDS011;5534;48.784;9.190;2023-05-23T12:46:04;6.18;;;5.53;;
10963;SDS011;5534;48.784;9.190;2023-05-23T12:48:31;7.85;;;5.20;;
10963;SDS011;5534;48.784;9.190;2023-05-23T12:50:58;5.57;;;4.95;;
10963;SDS011;5534;48.784;9.190;2023-05-23T12:53:25;5.70;;;4.97;;
10963;SDS011;5534;48.784;9.190;2023-05-23T12:55:51;5.97;;;5.05;;
10963;SDS011;5534;48.784;9.190;2023-05-23T12:58:16;5.10;;;4.60;;
10963;SDS011;5534;48.784;9.190;2023-05-23T13:00:42;5.25;;;4.75;;
10963;SDS011;5534;48.784;9.190;2023-05-23T13:03:08;6.07;;;4.40;;
10963;SDS011;5534;48.784;9.190;2023-05-23T13:05:34;6.20;;;4.18;;
10963;SDS011;5534;48.784;9.190;2023-05-23T13:07:59;4.70;;;4.05;;
10963;SDS011;5534;48.784;9.190;2023-05-23T13:10:25;5.35;;;3.97;;
10963;SDS011;5534;48.784;9.190;2023-05-23T13:12:51;4.25;;;3.45;;
10963;SDS011;5534;48.784;9.190;2023-05-23T13:15:17;6.72;;;4.97;;
10963;SDS011;5534;48.784;9.190;2023-05-23T13:17:43;4.35;;;3.95;;
10963;SDS011;5534;48.784;9.190;2023-05-23T13:20:10;4.35;;;3.92;;
10963;SDS011;5534;48.784;9.190;2023-05-23T13:22:38;7.95;;;5.65;;
10963;SDS011;5534;48.784;9.190;2023-05-23T13:25:05;4.65;;;4.13;;
10963;SDS011;5534;48.784;9.190;2023-05-23T13:27:32;5.35;;;4.55;;
10963;SDS011;5534;48.784;9.190;2023-05-23T13:29:58;4.47;;;4.00;;
10963;SDS011;5534;48.784;9.190;2023-05-23T13:32:24;3.92;;;3.53;;
10963;SDS011;5534;48.784;9.190;2023-05-23T13:34:50;5.05;;;4.05;;
10963;SDS011;5534;48.784;9.190;2023-05-23T13:37:17;4.35;;;3.95;;
10963;SDS011;5534;48.784;9.190;2023-05-23T13:39:42;5.25;;;4.30;;
10963;SDS011;5534;48.784;9.190;2023-05-23T13:42:08;6.40;;;4.30;;
10963;SDS011;5534;48.784;9.190;2023-05-23T13:44:34;3.92;;;3.47;;
10963;SDS011;5534;48.784;9.190;2023-05-23T13:47:13;4.90;;;3.78;;
10963;SDS011;5534;48.784;9.190;2023-05-23T13:49:40;4.47;;;3.70;;
10963;SDS011;5534;48.784;9.190;2023-05-23T13:52:06;4.88;;;3.53;;
10963;SDS011;5534;48.784;9.190;2023-05-23T13:54:32;6.25;;;3.78;;
10963;SDS011;5534;48.784;9.190;2023-05-23T13:56:58;3.92;;;3.10;;
10963;SDS011;5534;48.784;9.190;2023-05-23T13:59:25;3.50;;;3.20;;
10963;SDS011;5534;48.784;9.190;2023-05-23T14:01:51;4.40;;;3.42;;
10963;SDS011;5534;48.784;9.190;2023-05-23T14:04:17;3.75;;;2.75;;
10963;SDS011;5534;48.784;9.190;2023-05-23T14:06:43;4.88;;;3.70;;
10963;SDS011;5534;48.784;9.190;2023-05-23T14:09:09;5.18;;;4.28;;
10963;SDS011;5534;48.784;9.190;2023-05-23T14:11:35;3.28;;;2.95;;
10963;SDS011;5534;48.784;9.190;2023-05-23T14:14:03;3.72;;;2.97;;
10963;SDS011;5534;48.784;9.190;2023-05-23T14:16:29;4.15;;;3.08;;
10963;SDS011;5534;48.784;9.190;2023-05-23T14:18:55;3.65;;;3.30;;
10963;SDS011;5534;48.784;9.190;2023-05-23T14:21:21;8.10;;;5.72;;
10963;SDS011;5534;48.784;9.190;2023-05-23T14:23:47;4.43;;;3.38;;
10963;SDS011;5534;48.784;9.190;2023-05-23T14:26:13;3.45;;;2.63;;
10963;SDS011;5534;48.784;9.190;2023-05-23T14:28:38;5.63;;;3.67;;
10963;SDS011;5534;48.784;9.190;2023-05-23T14:31:04;3.47;;;3.13;;
10963;SDS011;5534;48.784;9.190;2023-05-23T14:33:31;3.38;;;3.05;;
10963;SDS011;5534;48.784;9.190;2023-05-23T14:35:57;5.20;;;3.50;;
10963;SDS011;5534;48.784;9.190;2023-05-23T14:38:28;4.15;;;3.75;;
10963;SDS011;5534;48.784;9.190;2023-05-23T14:40:54;4.13;;;3.50;;
10963;SDS011;5534;48.784;9.190;2023-05-23T14:43:20;3.40;;;2.78;;
10963;SDS011;5534;48.784;9.190;2023-05-23T14:45:46;3.50;;;3.20;;
10963;SDS011;5534;48.784;9.190;2023-05-23T14:48:11;4.35;;;3.08;;
10963;SDS011;5534;48.784;9.190;2023-05-23T14:50:37;3.35;;;3.05;;
10963;SDS011;5534;48.784;9.190;2023-05-23T14:53:06;4.65;;;3.92;;
10963;SDS011;5534;48.784;9.190;2023-05-23T14:55:32;4.93;;;3.00;;
10963;SDS011;5534;48.784;9.190;2023-05-23T14:57:58;3.72;;;3.15;;
10963;SDS011;5534;48.784;9.190;2023-05-23T15:00:24;3.13;;;2.83;;